createdAt,value
2016-10-24T00:00:03.102Z,1009.41
2016-10-24T00:00:13.095Z,1009.39
2016-10-24T00:00:23.090Z,1009.41
2016-10-24T00:00:33.085Z,1009.4
2016-10-24T00:00:43.077Z,1009.39
2016-10-24T00:00:53.071Z,1009.37
2016-10-24T00:01:03.065Z,1009.38
2016-10-24T00:01:13.059Z,1009.38
2016-10-24T00:01:23.054Z,1009.4
2016-10-24T00:01:33.384Z,1009.34
2016-10-24T00:01:43.040Z,1009.35
2016-10-24T00:01:53.034Z,1009.28
2016-10-24T00:02:03.030Z,1009.36
2016-10-24T00:02:13.022Z,1009.4
2016-10-24T00:02:23.017Z,1009.35
2016-10-24T00:02:33.010Z,1009.37
2016-10-24T00:02:43.004Z,1009.38
2016-10-24T00:02:52.998Z,1009.36
2016-10-24T00:03:02.992Z,1009.35
2016-10-24T00:03:12.987Z,1009.37
2016-10-24T00:03:22.978Z,1009.33
2016-10-24T00:03:32.973Z,1009.33
2016-10-24T00:03:43.041Z,1009.35
2016-10-24T00:03:52.961Z,1009.31
2016-10-24T00:04:02.955Z,1009.33
2016-10-24T00:04:12.950Z,1009.35
2016-10-24T00:04:22.944Z,1009.31
2016-10-24T00:04:32.938Z,1009.32
2016-10-24T00:04:42.931Z,1009.34
2016-10-24T00:04:52.925Z,1009.29
2016-10-24T00:05:02.919Z,1009.34
2016-10-24T00:05:12.912Z,1009.32
2016-10-24T00:05:22.907Z,1009.34
2016-10-24T00:05:32.902Z,1009.35
2016-10-24T00:05:42.895Z,1009.32
2016-10-24T00:05:52.889Z,1009.35
2016-10-24T00:06:02.882Z,1009.32
2016-10-24T00:06:12.876Z,1009.35
2016-10-24T00:06:22.870Z,1009.35
2016-10-24T00:06:32.862Z,1009.32
2016-10-24T00:06:42.857Z,1009.34
2016-10-24T00:06:52.853Z,1009.33
2016-10-24T00:07:02.845Z,1009.33
2016-10-24T00:07:12.840Z,1009.33
2016-10-24T00:07:22.837Z,1009.32
2016-10-24T00:07:32.826Z,1009.26
2016-10-24T00:07:42.823Z,1009.28
2016-10-24T00:07:52.815Z,1009.33
2016-10-24T00:08:02.809Z,1009.35
2016-10-24T00:08:12.804Z,1009.3
2016-10-24T00:08:22.795Z,1009.27
2016-10-24T00:08:32.820Z,1009.34
2016-10-24T00:08:42.785Z,1009.31
2016-10-24T00:08:52.778Z,1009.29
2016-10-24T00:09:03.108Z,1009.28
2016-10-24T00:09:12.787Z,1009.25
2016-10-24T00:09:22.761Z,1009.28
2016-10-24T00:09:32.754Z,1009.3
2016-10-24T00:09:42.747Z,1009.34
2016-10-24T00:09:52.741Z,1009.32
2016-10-24T00:10:02.738Z,1009.31
2016-10-24T00:10:12.729Z,1009.34
2016-10-24T00:10:22.722Z,1009.33
2016-10-24T00:10:32.716Z,1009.34
2016-10-24T00:10:42.711Z,1009.32
2016-10-24T00:10:52.706Z,1009.34
2016-10-24T00:11:02.698Z,1009.38
2016-10-24T00:11:12.692Z,1009.39
2016-10-24T00:11:22.689Z,1009.36
2016-10-24T00:11:32.682Z,1009.39
2016-10-24T00:11:42.674Z,1009.39
2016-10-24T00:11:52.668Z,1009.43
2016-10-24T00:12:02.663Z,1009.46
2016-10-24T00:12:12.658Z,1009.4
2016-10-24T00:12:22.676Z,1009.4
2016-10-24T00:12:32.645Z,1009.38
2016-10-24T00:12:42.638Z,1009.46
2016-10-24T00:12:52.632Z,1009.42
2016-10-24T00:13:02.626Z,1009.41
2016-10-24T00:13:12.620Z,1009.43
2016-10-24T00:13:22.613Z,1009.38
2016-10-24T00:13:32.608Z,1009.38
2016-10-24T00:13:42.600Z,1009.37
2016-10-24T00:13:52.596Z,1009.41
2016-10-24T00:14:02.591Z,1009.4
2016-10-24T00:14:12.583Z,1009.42
2016-10-24T00:14:22.577Z,1009.46
2016-10-24T00:14:32.570Z,1009.41
2016-10-24T00:14:42.566Z,1009.43
2016-10-24T00:14:52.562Z,1009.44
2016-10-24T00:15:02.552Z,1009.41
2016-10-24T00:15:12.546Z,1009.39
2016-10-24T00:15:22.541Z,1009.39
2016-10-24T00:15:32.533Z,1009.34
2016-10-24T00:15:42.528Z,1009.42
2016-10-24T00:15:52.521Z,1009.38
2016-10-24T00:16:02.515Z,1009.38
2016-10-24T00:16:12.511Z,1009.41
2016-10-24T00:16:22.503Z,1009.37
2016-10-24T00:16:32.499Z,1009.39
2016-10-24T00:16:42.491Z,1009.37
2016-10-24T00:16:52.486Z,1009.39
2016-10-24T00:17:02.479Z,1009.4
2016-10-24T00:17:12.473Z,1009.39
2016-10-24T00:17:22.467Z,1009.4
2016-10-24T00:17:32.461Z,1009.42
2016-10-24T00:17:42.455Z,1009.38
2016-10-24T00:17:52.449Z,1009.37
2016-10-24T00:18:02.442Z,1009.42
2016-10-24T00:18:12.435Z,1009.37
2016-10-24T00:18:22.431Z,1009.35
2016-10-24T00:18:32.425Z,1009.36
2016-10-24T00:18:42.418Z,1009.42
2016-10-24T00:18:52.413Z,1009.35
2016-10-24T00:19:02.405Z,1009.36
2016-10-24T00:19:12.399Z,1009.38
2016-10-24T00:19:22.395Z,1009.39
2016-10-24T00:19:32.388Z,1009.37
2016-10-24T00:19:42.382Z,1009.33
2016-10-24T00:19:52.375Z,1009.32
2016-10-24T00:20:02.370Z,1009.31
2016-10-24T00:20:12.387Z,1009.28
2016-10-24T00:20:22.356Z,1009.29
2016-10-24T00:20:32.351Z,1009.27
2016-10-24T00:20:42.345Z,1009.3
2016-10-24T00:20:52.339Z,1009.27
2016-10-24T00:21:02.333Z,1009.28
2016-10-24T00:21:12.325Z,1009.27
2016-10-24T00:21:22.346Z,1009.29
2016-10-24T00:21:32.316Z,1009.26
2016-10-24T00:21:42.308Z,1009.3
2016-10-24T00:21:52.302Z,1009.27
2016-10-24T00:22:02.295Z,1009.29
2016-10-24T00:22:12.312Z,1009.31
2016-10-24T00:22:22.285Z,1009.32
2016-10-24T00:22:32.276Z,1009.3
2016-10-24T00:22:42.273Z,1009.3
2016-10-24T00:22:52.266Z,1009.33
2016-10-24T00:23:02.259Z,1009.31
2016-10-24T00:23:12.251Z,1009.3
2016-10-24T00:23:22.249Z,1009.28
2016-10-24T00:23:32.241Z,1009.31
2016-10-24T00:23:42.235Z,1009.38
2016-10-24T00:23:52.227Z,1009.32
2016-10-24T00:24:02.224Z,1009.3
2016-10-24T00:24:12.217Z,1009.28
2016-10-24T00:24:22.210Z,1009.36
2016-10-24T00:24:32.205Z,1009.42
2016-10-24T00:24:42.199Z,1009.37
2016-10-24T00:24:52.192Z,1009.38
2016-10-24T00:25:02.186Z,1009.38
2016-10-24T00:25:12.180Z,1009.35
2016-10-24T00:25:22.174Z,1009.38
2016-10-24T00:25:32.168Z,1009.4
2016-10-24T00:25:42.160Z,1009.35
2016-10-24T00:25:52.156Z,1009.32
2016-10-24T00:26:02.149Z,1009.38
2016-10-24T00:26:12.144Z,1009.38
2016-10-24T00:26:22.138Z,1009.38
2016-10-24T00:26:32.131Z,1009.37
2016-10-24T00:26:42.126Z,1009.35
2016-10-24T00:26:52.119Z,1009.35
2016-10-24T00:27:02.146Z,1009.36
2016-10-24T00:27:12.106Z,1009.41
2016-10-24T00:27:22.129Z,1009.37
2016-10-24T00:27:32.095Z,1009.35
2016-10-24T00:27:42.090Z,1009.37
2016-10-24T00:27:52.082Z,1009.38
2016-10-24T00:28:02.076Z,1009.34
2016-10-24T00:28:12.070Z,1009.45
2016-10-24T00:28:22.064Z,1009.38
2016-10-24T00:28:32.062Z,1009.39
2016-10-24T00:28:42.052Z,1009.38
2016-10-24T00:28:52.046Z,1009.35
2016-10-24T00:29:02.041Z,1009.37
2016-10-24T00:29:12.034Z,1009.32
2016-10-24T00:29:22.028Z,1009.42
2016-10-24T00:29:32.022Z,1009.36
2016-10-24T00:29:42.014Z,1009.36
2016-10-24T00:29:52.008Z,1009.36
2016-10-24T00:30:02.002Z,1009.36
2016-10-24T00:30:11.998Z,1009.35
2016-10-24T00:30:21.991Z,1009.38
2016-10-24T00:30:31.983Z,1009.36
2016-10-24T00:30:41.979Z,1009.35
2016-10-24T00:30:51.972Z,1009.33
2016-10-24T00:31:01.966Z,1009.3
2016-10-24T00:31:11.959Z,1009.29
2016-10-24T00:31:21.954Z,1009.33
2016-10-24T00:31:31.948Z,1009.32
2016-10-24T00:31:41.942Z,1009.31
2016-10-24T00:31:51.935Z,1009.34
2016-10-24T00:32:01.930Z,1009.32
2016-10-24T00:32:11.924Z,1009.29
2016-10-24T00:32:21.917Z,1009.26
2016-10-24T00:32:31.910Z,1009.29
2016-10-24T00:32:41.908Z,1009.27
2016-10-24T00:32:51.899Z,1009.35
2016-10-24T00:33:01.893Z,1009.35
2016-10-24T00:33:11.887Z,1009.31
2016-10-24T00:33:21.880Z,1009.3
2016-10-24T00:33:31.874Z,1009.3
2016-10-24T00:33:41.869Z,1009.36
2016-10-24T00:33:51.867Z,1009.26
2016-10-24T00:34:01.856Z,1009.34
2016-10-24T00:34:11.850Z,1009.28
2016-10-24T00:34:21.844Z,1009.31
2016-10-24T00:34:31.838Z,1009.32
2016-10-24T00:34:41.851Z,1009.31
2016-10-24T00:34:51.827Z,1009.32
2016-10-24T00:35:02.154Z,1009.31
2016-10-24T00:35:11.813Z,1009.29
2016-10-24T00:35:21.808Z,1009.31
2016-10-24T00:35:31.801Z,1009.3
2016-10-24T00:35:41.797Z,1009.3
2016-10-24T00:35:51.788Z,1009.29
2016-10-24T00:36:01.783Z,1009.24
2016-10-24T00:36:11.778Z,1009.27
2016-10-24T00:36:21.771Z,1009.28
2016-10-24T00:36:31.764Z,1009.3
2016-10-24T00:36:41.759Z,1009.3
2016-10-24T00:36:51.751Z,1009.31
2016-10-24T00:37:01.769Z,1009.25
2016-10-24T00:37:11.739Z,1009.29
2016-10-24T00:37:21.733Z,1009.32
2016-10-24T00:37:31.729Z,1009.28
2016-10-24T00:37:41.721Z,1009.26
2016-10-24T00:37:51.715Z,1009.25
2016-10-24T00:38:01.709Z,1009.26
2016-10-24T00:38:11.703Z,1009.27
2016-10-24T00:38:21.698Z,1009.28
2016-10-24T00:38:31.719Z,1009.27
2016-10-24T00:38:41.718Z,1009.29
2016-10-24T00:38:51.681Z,1009.3
2016-10-24T00:39:02.007Z,1009.29
2016-10-24T00:39:11.667Z,1009.26
2016-10-24T00:39:21.661Z,1009.3
2016-10-24T00:39:31.655Z,1009.3
2016-10-24T00:39:41.648Z,1009.29
2016-10-24T00:39:51.641Z,1009.31
2016-10-24T00:40:01.637Z,1009.31
2016-10-24T00:40:11.631Z,1009.34
2016-10-24T00:40:21.624Z,1009.33
2016-10-24T00:40:31.618Z,1009.39
2016-10-24T00:40:41.613Z,1009.33
2016-10-24T00:40:51.605Z,1009.38
2016-10-24T00:41:01.600Z,1009.35
2016-10-24T00:41:11.593Z,1009.37
2016-10-24T00:41:21.588Z,1009.38
2016-10-24T00:41:31.582Z,1009.41
2016-10-24T00:41:41.575Z,1009.4
2016-10-24T00:41:51.571Z,1009.42
2016-10-24T00:42:01.563Z,1009.44
2016-10-24T00:42:11.556Z,1009.43
2016-10-24T00:42:21.551Z,1009.45
2016-10-24T00:42:31.547Z,1009.45
2016-10-24T00:42:41.570Z,1009.52
2016-10-24T00:42:51.534Z,1009.45
2016-10-24T00:43:01.527Z,1009.49
2016-10-24T00:43:11.521Z,1009.48
2016-10-24T00:43:21.515Z,1009.45
2016-10-24T00:43:31.508Z,1009.48
2016-10-24T00:43:41.502Z,1009.49
2016-10-24T00:43:51.495Z,1009.48
2016-10-24T00:44:01.522Z,1009.48
2016-10-24T00:44:11.485Z,1009.45
2016-10-24T00:44:21.477Z,1009.48
2016-10-24T00:44:31.472Z,1009.46
2016-10-24T00:44:41.467Z,1009.44
2016-10-24T00:44:51.460Z,1009.45
2016-10-24T00:45:01.453Z,1009.44
2016-10-24T00:45:11.466Z,1009.46
2016-10-24T00:45:21.440Z,1009.45
2016-10-24T00:45:31.437Z,1009.46
2016-10-24T00:45:41.429Z,1009.46
2016-10-24T00:45:51.422Z,1009.43
2016-10-24T00:46:01.418Z,1009.46
2016-10-24T00:46:11.410Z,1009.41
2016-10-24T00:46:21.404Z,1009.5
2016-10-24T00:46:31.398Z,1009.4
2016-10-24T00:46:41.392Z,1009.41
2016-10-24T00:46:51.387Z,1009.44
2016-10-24T00:47:01.380Z,1009.43
2016-10-24T00:47:11.398Z,1009.43
2016-10-24T00:47:21.368Z,1009.42
2016-10-24T00:47:31.363Z,1009.42
2016-10-24T00:47:41.356Z,1009.48
2016-10-24T00:47:51.350Z,1009.44
2016-10-24T00:48:01.344Z,1009.44
2016-10-24T00:48:11.339Z,1009.45
2016-10-24T00:48:21.331Z,1009.47
2016-10-24T00:48:31.325Z,1009.47
2016-10-24T00:48:41.319Z,1009.41
2016-10-24T00:48:51.312Z,1009.41
2016-10-24T00:49:01.307Z,1009.41
2016-10-24T00:49:11.300Z,1009.43
2016-10-24T00:49:21.321Z,1009.43
2016-10-24T00:49:31.289Z,1009.44
2016-10-24T00:49:41.282Z,1009.42
2016-10-24T00:49:51.277Z,1009.42
2016-10-24T00:50:01.271Z,1009.36
2016-10-24T00:50:11.263Z,1009.38
2016-10-24T00:50:21.257Z,1009.36
2016-10-24T00:50:31.252Z,1009.38
2016-10-24T00:50:41.246Z,1009.35
2016-10-24T00:50:51.241Z,1009.41
2016-10-24T00:51:01.257Z,1009.38
2016-10-24T00:51:11.227Z,1009.35
2016-10-24T00:51:21.222Z,1009.35
2016-10-24T00:51:31.214Z,1009.35
2016-10-24T00:51:41.208Z,1009.35
2016-10-24T00:51:51.204Z,1009.31
2016-10-24T00:52:01.196Z,1009.35
2016-10-24T00:52:11.192Z,1009.3
2016-10-24T00:52:21.185Z,1009.34
2016-10-24T00:52:31.178Z,1009.25
2016-10-24T00:52:41.172Z,1009.26
2016-10-24T00:52:51.166Z,1009.3
2016-10-24T00:53:01.161Z,1009.3
2016-10-24T00:53:11.154Z,1009.28
2016-10-24T00:53:21.147Z,1009.29
2016-10-24T00:53:31.141Z,1009.27
2016-10-24T00:53:41.136Z,1009.28
2016-10-24T00:53:51.130Z,1009.3
2016-10-24T00:54:01.124Z,1009.23
2016-10-24T00:54:11.117Z,1009.27
2016-10-24T00:54:21.113Z,1009.23
2016-10-24T00:54:31.104Z,1009.25
2016-10-24T00:54:41.099Z,1009.29
2016-10-24T00:54:51.092Z,1009.29
2016-10-24T00:55:01.088Z,1009.24
2016-10-24T00:55:11.097Z,1009.24
2016-10-24T00:55:21.075Z,1009.21
2016-10-24T00:55:31.069Z,1009.25
2016-10-24T00:55:41.062Z,1009.2
2016-10-24T00:55:51.056Z,1009.21
2016-10-24T00:56:01.083Z,1009.26
2016-10-24T00:56:11.044Z,1009.25
2016-10-24T00:56:21.038Z,1009.24
2016-10-24T00:56:31.031Z,1009.2
2016-10-24T00:56:41.027Z,1009.22
2016-10-24T00:56:51.018Z,1009.18
2016-10-24T00:57:01.042Z,1009.17
2016-10-24T00:57:11.009Z,1009.18
2016-10-24T00:57:21.001Z,1009.22
2016-10-24T00:57:31.022Z,1009.21
2016-10-24T00:57:40.991Z,1009.2
2016-10-24T00:57:50.983Z,1009.2
2016-10-24T00:58:00.977Z,1009.24
2016-10-24T00:58:10.972Z,1009.2
2016-10-24T00:58:20.965Z,1009.17
2016-10-24T00:58:30.960Z,1009.16
2016-10-24T00:58:40.952Z,1009.17
2016-10-24T00:58:50.946Z,1009.21
2016-10-24T00:59:00.941Z,1009.19
2016-10-24T00:59:10.936Z,1009.22
2016-10-24T00:59:20.937Z,1009.19
2016-10-24T00:59:30.921Z,1009.22
2016-10-24T00:59:40.915Z,1009.23
2016-10-24T00:59:50.911Z,1009.26
2016-10-24T01:00:00.904Z,1009.19
2016-10-24T01:00:10.899Z,1009.26
2016-10-24T01:00:20.891Z,1009.23
2016-10-24T01:00:30.884Z,1009.27
2016-10-24T01:00:40.879Z,1009.23
2016-10-24T01:00:50.874Z,1009.25
2016-10-24T01:01:00.869Z,1009.22
2016-10-24T01:01:10.861Z,1009.25
2016-10-24T01:01:20.856Z,1009.27
2016-10-24T01:01:30.850Z,1009.29
2016-10-24T01:01:40.843Z,1009.31
2016-10-24T01:01:50.836Z,1009.27
2016-10-24T01:02:00.830Z,1009.25
2016-10-24T01:02:10.824Z,1009.27
2016-10-24T01:02:20.818Z,1009.31
2016-10-24T01:02:30.812Z,1009.27
2016-10-24T01:02:40.807Z,1009.27
2016-10-24T01:02:50.800Z,1009.28
2016-10-24T01:03:00.793Z,1009.24
2016-10-24T01:03:10.788Z,1009.3
2016-10-24T01:03:20.782Z,1009.31
2016-10-24T01:03:30.775Z,1009.29
2016-10-24T01:03:40.769Z,1009.29
2016-10-24T01:03:50.765Z,1009.29
2016-10-24T01:04:00.757Z,1009.32
2016-10-24T01:04:10.752Z,1009.36
2016-10-24T01:04:20.747Z,1009.33
2016-10-24T01:04:30.738Z,1009.3
2016-10-24T01:04:40.733Z,1009.27
2016-10-24T01:04:50.728Z,1009.32
2016-10-24T01:05:00.720Z,1009.32
2016-10-24T01:05:10.715Z,1009.35
2016-10-24T01:05:20.736Z,1009.37
2016-10-24T01:05:30.702Z,1009.38
2016-10-24T01:05:40.722Z,1009.34
2016-10-24T01:05:50.690Z,1009.35
2016-10-24T01:06:00.684Z,1009.38
2016-10-24T01:06:10.677Z,1009.36
2016-10-24T01:06:20.671Z,1009.35
2016-10-24T01:06:30.666Z,1009.4
2016-10-24T01:06:40.659Z,1009.46
2016-10-24T01:06:50.653Z,1009.41
2016-10-24T01:07:00.647Z,1009.41
2016-10-24T01:07:10.641Z,1009.41
2016-10-24T01:07:20.635Z,1009.42
2016-10-24T01:07:30.629Z,1009.42
2016-10-24T01:07:40.623Z,1009.49
2016-10-24T01:07:50.616Z,1009.46
2016-10-24T01:08:00.946Z,1009.42
2016-10-24T01:08:10.604Z,1009.46
2016-10-24T01:08:20.599Z,1009.48
2016-10-24T01:08:30.593Z,1009.5
2016-10-24T01:08:40.587Z,1009.52
2016-10-24T01:08:50.580Z,1009.49
2016-10-24T01:09:00.574Z,1009.5
2016-10-24T01:09:10.570Z,1009.47
2016-10-24T01:09:20.588Z,1009.5
2016-10-24T01:09:30.563Z,1009.48
2016-10-24T01:09:40.549Z,1009.49
2016-10-24T01:09:50.543Z,1009.46
2016-10-24T01:10:00.537Z,1009.48
2016-10-24T01:10:10.866Z,1009.49
2016-10-24T01:10:20.525Z,1009.48
2016-10-24T01:10:30.520Z,1009.48
2016-10-24T01:10:40.513Z,1009.47
2016-10-24T01:10:50.506Z,1009.46
2016-10-24T01:11:00.500Z,1009.49
2016-10-24T01:11:10.494Z,1009.47
2016-10-24T01:11:20.489Z,1009.47
2016-10-24T01:11:30.482Z,1009.47
2016-10-24T01:11:40.476Z,1009.47
2016-10-24T01:11:50.470Z,1009.49
2016-10-24T01:12:00.464Z,1009.51
2016-10-24T01:12:10.459Z,1009.5
2016-10-24T01:12:20.452Z,1009.5
2016-10-24T01:12:30.446Z,1009.48
2016-10-24T01:12:40.439Z,1009.47
2016-10-24T01:12:50.434Z,1009.51
2016-10-24T01:13:00.427Z,1009.49
2016-10-24T01:13:10.425Z,1009.53
2016-10-24T01:13:20.415Z,1009.48
2016-10-24T01:13:30.410Z,1009.43
2016-10-24T01:13:40.403Z,1009.48
2016-10-24T01:13:50.397Z,1009.52
2016-10-24T01:14:00.390Z,1009.52
2016-10-24T01:14:10.426Z,1009.49
2016-10-24T01:14:20.377Z,1009.51
2016-10-24T01:14:30.372Z,1009.45
2016-10-24T01:14:40.368Z,1009.52
2016-10-24T01:14:50.360Z,1009.53
2016-10-24T01:15:00.353Z,1009.47
2016-10-24T01:15:10.347Z,1009.52
2016-10-24T01:15:20.343Z,1009.47
2016-10-24T01:15:30.365Z,1009.52
2016-10-24T01:15:40.329Z,1009.5
2016-10-24T01:15:50.323Z,1009.46
2016-10-24T01:16:00.317Z,1009.51
2016-10-24T01:16:10.311Z,1009.51
2016-10-24T01:16:20.304Z,1009.52
2016-10-24T01:16:30.299Z,1009.51
2016-10-24T01:16:40.319Z,1009.57
2016-10-24T01:16:50.288Z,1009.55
2016-10-24T01:17:00.281Z,1009.54
2016-10-24T01:17:10.274Z,1009.46
2016-10-24T01:17:20.270Z,1009.57
2016-10-24T01:17:30.262Z,1009.51
2016-10-24T01:17:40.255Z,1009.55
2016-10-24T01:17:50.250Z,1009.53
2016-10-24T01:18:00.243Z,1009.5
2016-10-24T01:18:10.241Z,1009.55
2016-10-24T01:18:20.232Z,1009.51
2016-10-24T01:18:30.226Z,1009.51
2016-10-24T01:18:40.220Z,1009.46
2016-10-24T01:18:50.214Z,1009.51
2016-10-24T01:19:00.207Z,1009.53
2016-10-24T01:19:10.234Z,1009.53
2016-10-24T01:19:20.195Z,1009.48
2016-10-24T01:19:30.190Z,1009.46
2016-10-24T01:19:40.183Z,1009.49
2016-10-24T01:19:50.176Z,1009.47
2016-10-24T01:20:00.172Z,1009.45
2016-10-24T01:20:10.166Z,1009.47
2016-10-24T01:20:20.158Z,1009.47
2016-10-24T01:20:30.152Z,1009.46
2016-10-24T01:20:40.147Z,1009.45
2016-10-24T01:20:50.143Z,1009.45
2016-10-24T01:21:00.135Z,1009.45
2016-10-24T01:21:10.128Z,1009.42
2016-10-24T01:21:20.122Z,1009.41
2016-10-24T01:21:30.116Z,1009.36
2016-10-24T01:21:40.108Z,1009.4
2016-10-24T01:21:50.103Z,1009.45
2016-10-24T01:22:00.097Z,1009.37
2016-10-24T01:22:10.091Z,1009.37
2016-10-24T01:22:20.086Z,1009.41
2016-10-24T01:22:30.079Z,1009.39
2016-10-24T01:22:40.073Z,1009.41
2016-10-24T01:22:50.067Z,1009.4
2016-10-24T01:23:00.059Z,1009.37
2016-10-24T01:23:10.055Z,1009.43
2016-10-24T01:23:20.052Z,1009.39
2016-10-24T01:23:30.042Z,1009.36
2016-10-24T01:23:40.035Z,1009.36
2016-10-24T01:23:50.031Z,1009.42
2016-10-24T01:24:00.025Z,1009.41
2016-10-24T01:24:10.019Z,1009.42
2016-10-24T01:24:20.010Z,1009.38
2016-10-24T01:24:30.005Z,1009.44
2016-10-24T01:24:40.000Z,1009.45
2016-10-24T01:24:49.992Z,1009.37
2016-10-24T01:24:59.987Z,1009.36
2016-10-24T01:25:09.983Z,1009.39
2016-10-24T01:25:19.974Z,1009.44
2016-10-24T01:25:29.968Z,1009.41
2016-10-24T01:25:39.962Z,1009.44
2016-10-24T01:25:49.957Z,1009.43
2016-10-24T01:25:59.951Z,1009.42
2016-10-24T01:26:09.944Z,1009.42
2016-10-24T01:26:19.939Z,1009.44
2016-10-24T01:26:29.932Z,1009.42
2016-10-24T01:26:39.926Z,1009.43
2016-10-24T01:26:49.919Z,1009.45
2016-10-24T01:26:59.913Z,1009.47
2016-10-24T01:27:09.908Z,1009.47
2016-10-24T01:27:19.903Z,1009.48
2016-10-24T01:27:29.895Z,1009.5
2016-10-24T01:27:39.889Z,1009.5
2016-10-24T01:27:49.883Z,1009.46
2016-10-24T01:27:59.877Z,1009.49
2016-10-24T01:28:09.873Z,1009.5
2016-10-24T01:28:19.866Z,1009.49
2016-10-24T01:28:29.859Z,1009.48
2016-10-24T01:28:39.852Z,1009.52
2016-10-24T01:28:49.883Z,1009.52
2016-10-24T01:28:59.840Z,1009.54
2016-10-24T01:29:09.836Z,1009.52
2016-10-24T01:29:19.828Z,1009.52
2016-10-24T01:29:29.822Z,1009.52
2016-10-24T01:29:39.817Z,1009.57
2016-10-24T01:29:49.809Z,1009.55
2016-10-24T01:29:59.803Z,1009.55
2016-10-24T01:30:09.797Z,1009.54
2016-10-24T01:30:19.791Z,1009.56
2016-10-24T01:30:30.120Z,1009.53
2016-10-24T01:30:39.778Z,1009.56
2016-10-24T01:30:49.774Z,1009.53
2016-10-24T01:30:59.766Z,1009.51
2016-10-24T01:31:09.762Z,1009.53
2016-10-24T01:31:19.755Z,1009.56
2016-10-24T01:31:29.748Z,1009.56
2016-10-24T01:31:39.742Z,1009.55
2016-10-24T01:31:49.735Z,1009.58
2016-10-24T01:31:59.729Z,1009.53
2016-10-24T01:32:09.725Z,1009.54
2016-10-24T01:32:19.716Z,1009.51
2016-10-24T01:32:29.712Z,1009.56
2016-10-24T01:32:39.707Z,1009.53
2016-10-24T01:32:49.700Z,1009.55
2016-10-24T01:32:59.697Z,1009.54
2016-10-24T01:33:09.688Z,1009.57
2016-10-24T01:33:19.681Z,1009.53
2016-10-24T01:33:29.675Z,1009.58
2016-10-24T01:33:39.668Z,1009.55
2016-10-24T01:33:49.663Z,1009.58
2016-10-24T01:33:59.659Z,1009.54
2016-10-24T01:34:09.653Z,1009.54
2016-10-24T01:34:19.646Z,1009.56
2016-10-24T01:34:29.671Z,1009.59
2016-10-24T01:34:39.633Z,1009.58
2016-10-24T01:34:49.626Z,1009.61
2016-10-24T01:34:59.621Z,1009.57
2016-10-24T01:35:09.615Z,1009.58
2016-10-24T01:35:19.607Z,1009.55
2016-10-24T01:35:29.601Z,1009.59
2016-10-24T01:35:39.595Z,1009.59
2016-10-24T01:35:49.591Z,1009.6
2016-10-24T01:35:59.584Z,1009.58
2016-10-24T01:36:09.578Z,1009.65
2016-10-24T01:36:19.571Z,1009.6
2016-10-24T01:36:29.565Z,1009.64
2016-10-24T01:36:39.561Z,1009.6
2016-10-24T01:36:49.553Z,1009.62
2016-10-24T01:36:59.549Z,1009.64
2016-10-24T01:37:09.541Z,1009.64
2016-10-24T01:37:19.534Z,1009.61
2016-10-24T01:37:29.559Z,1009.65
2016-10-24T01:37:39.522Z,1009.64
2016-10-24T01:37:49.516Z,1009.63
2016-10-24T01:37:59.511Z,1009.63
2016-10-24T01:38:09.503Z,1009.63
2016-10-24T01:38:19.500Z,1009.62
2016-10-24T01:38:29.492Z,1009.66
2016-10-24T01:38:39.486Z,1009.63
2016-10-24T01:38:49.479Z,1009.69
2016-10-24T01:38:59.472Z,1009.64
2016-10-24T01:39:09.468Z,1009.68
2016-10-24T01:39:19.462Z,1009.66
2016-10-24T01:39:29.455Z,1009.66
2016-10-24T01:39:39.449Z,1009.69
2016-10-24T01:39:49.443Z,1009.67
2016-10-24T01:39:59.436Z,1009.66
2016-10-24T01:40:09.432Z,1009.68
2016-10-24T01:40:19.424Z,1009.68
2016-10-24T01:40:29.418Z,1009.68
2016-10-24T01:40:39.412Z,1009.64
2016-10-24T01:40:49.405Z,1009.68
2016-10-24T01:40:59.401Z,1009.65
2016-10-24T01:41:09.395Z,1009.64
2016-10-24T01:41:19.390Z,1009.66
2016-10-24T01:41:29.383Z,1009.63
2016-10-24T01:41:39.375Z,1009.64
2016-10-24T01:41:49.370Z,1009.61
2016-10-24T01:41:59.364Z,1009.64
2016-10-24T01:42:09.356Z,1009.66
2016-10-24T01:42:19.351Z,1009.6
2016-10-24T01:42:29.345Z,1009.67
2016-10-24T01:42:39.339Z,1009.61
2016-10-24T01:42:49.333Z,1009.67
2016-10-24T01:42:59.328Z,1009.6
2016-10-24T01:43:09.343Z,1009.62
2016-10-24T01:43:19.315Z,1009.61
2016-10-24T01:43:29.309Z,1009.65
2016-10-24T01:43:39.303Z,1009.63
2016-10-24T01:43:49.295Z,1009.62
2016-10-24T01:43:59.289Z,1009.62
2016-10-24T01:44:09.285Z,1009.61
2016-10-24T01:44:19.277Z,1009.6
2016-10-24T01:44:29.271Z,1009.64
2016-10-24T01:44:39.267Z,1009.67
2016-10-24T01:44:49.261Z,1009.66
2016-10-24T01:44:59.254Z,1009.64
2016-10-24T01:45:09.246Z,1009.66
2016-10-24T01:45:19.241Z,1009.68
2016-10-24T01:45:29.233Z,1009.63
2016-10-24T01:45:39.227Z,1009.64
2016-10-24T01:45:49.222Z,1009.68
2016-10-24T01:45:59.218Z,1009.65
2016-10-24T01:46:09.212Z,1009.64
2016-10-24T01:46:19.205Z,1009.69
2016-10-24T01:46:29.197Z,1009.67
2016-10-24T01:46:39.195Z,1009.64
2016-10-24T01:46:49.187Z,1009.67
2016-10-24T01:46:59.179Z,1009.71
2016-10-24T01:47:09.173Z,1009.68
2016-10-24T01:47:19.170Z,1009.71
2016-10-24T01:47:29.162Z,1009.7
2016-10-24T01:47:39.156Z,1009.73
2016-10-24T01:47:49.149Z,1009.71
2016-10-24T01:47:59.142Z,1009.7
2016-10-24T01:48:09.138Z,1009.72
2016-10-24T01:48:19.130Z,1009.7
2016-10-24T01:48:29.125Z,1009.75
2016-10-24T01:48:39.148Z,1009.78
2016-10-24T01:48:49.112Z,1009.78
2016-10-24T01:48:59.108Z,1009.73
2016-10-24T01:49:09.100Z,1009.75
2016-10-24T01:49:19.093Z,1009.74
2016-10-24T01:49:29.088Z,1009.74
2016-10-24T01:49:39.081Z,1009.75
2016-10-24T01:49:49.077Z,1009.7
2016-10-24T01:49:59.096Z,1009.77
2016-10-24T01:50:09.064Z,1009.76
2016-10-24T01:50:19.059Z,1009.76
2016-10-24T01:50:29.052Z,1009.74
2016-10-24T01:50:39.045Z,1009.74
2016-10-24T01:50:49.039Z,1009.74
2016-10-24T01:50:59.032Z,1009.76
2016-10-24T01:51:09.026Z,1009.76
2016-10-24T01:51:19.021Z,1009.82
2016-10-24T01:51:29.015Z,1009.81
2016-10-24T01:51:39.009Z,1009.79
2016-10-24T01:51:49.002Z,1009.78
2016-10-24T01:51:58.996Z,1009.82
2016-10-24T01:52:08.989Z,1009.8
2016-10-24T01:52:18.984Z,1009.78
2016-10-24T01:52:28.978Z,1009.83
2016-10-24T01:52:38.971Z,1009.79
2016-10-24T01:52:48.965Z,1009.82
2016-10-24T01:52:58.960Z,1009.8
2016-10-24T01:53:08.953Z,1009.75
2016-10-24T01:53:18.947Z,1009.76
2016-10-24T01:53:28.940Z,1009.83
2016-10-24T01:53:38.933Z,1009.75
2016-10-24T01:53:48.929Z,1009.78
2016-10-24T01:53:58.923Z,1009.77
2016-10-24T01:54:08.917Z,1009.75
2016-10-24T01:54:18.911Z,1009.8
2016-10-24T01:54:28.902Z,1009.79
2016-10-24T01:54:38.897Z,1009.8
2016-10-24T01:54:48.892Z,1009.76
2016-10-24T01:54:58.887Z,1009.72
2016-10-24T01:55:08.880Z,1009.75
2016-10-24T01:55:18.873Z,1009.75
2016-10-24T01:55:28.868Z,1009.73
2016-10-24T01:55:38.861Z,1009.73
2016-10-24T01:55:48.855Z,1009.74
2016-10-24T01:55:58.849Z,1009.71
2016-10-24T01:56:08.843Z,1009.72
2016-10-24T01:56:18.838Z,1009.76
2016-10-24T01:56:28.831Z,1009.7
2016-10-24T01:56:38.825Z,1009.72
2016-10-24T01:56:48.818Z,1009.7
2016-10-24T01:56:58.813Z,1009.74
2016-10-24T01:57:08.807Z,1009.69
2016-10-24T01:57:18.800Z,1009.7
2016-10-24T01:57:28.794Z,1009.65
2016-10-24T01:57:38.788Z,1009.66
2016-10-24T01:57:48.784Z,1009.66
2016-10-24T01:57:58.776Z,1009.63
2016-10-24T01:58:08.770Z,1009.63
2016-10-24T01:58:18.765Z,1009.69
2016-10-24T01:58:28.759Z,1009.66
2016-10-24T01:58:38.753Z,1009.69
2016-10-24T01:58:48.745Z,1009.61
2016-10-24T01:58:58.738Z,1009.59
2016-10-24T01:59:08.732Z,1009.6
2016-10-24T01:59:18.727Z,1009.55
2016-10-24T01:59:28.721Z,1009.55
2016-10-24T01:59:38.717Z,1009.59
2016-10-24T01:59:48.709Z,1009.61
2016-10-24T01:59:58.702Z,1009.6
2016-10-24T02:00:08.700Z,1009.61
2016-10-24T02:00:18.690Z,1009.58
2016-10-24T02:00:28.684Z,1009.57
2016-10-24T02:00:38.679Z,1009.58
2016-10-24T02:00:48.671Z,1009.6
2016-10-24T02:00:58.666Z,1009.59
2016-10-24T02:01:08.660Z,1009.5
2016-10-24T02:01:18.653Z,1009.56